createdAt,value
2018-11-23T00:02:24.534Z,17.05
2018-11-23T00:04:52.895Z,16.48
2018-11-23T00:07:21.400Z,14.98
2018-11-23T00:09:49.728Z,16.42
2018-11-23T00:12:18.043Z,15.75
2018-11-23T00:14:46.432Z,15.95
2018-11-23T00:17:14.804Z,17.27
2018-11-23T00:19:43.194Z,16.48
2018-11-23T00:22:12.184Z,16.17
2018-11-23T00:24:40.887Z,16.10
2018-11-23T00:27:09.597Z,16.55
2018-11-23T00:29:38.306Z,17.12
2018-11-23T00:32:06.635Z,16.50
2018-11-23T00:34:34.956Z,16.45
2018-11-23T00:37:03.290Z,16.82
2018-11-23T00:39:31.612Z,16.80
2018-11-23T00:41:59.940Z,16.17
2018-11-23T00:44:28.203Z,16.73
2018-11-23T00:46:56.522Z,15.03
2018-11-23T00:49:24.822Z,16.97
2018-11-23T00:51:53.180Z,17.40
2018-11-23T00:54:21.491Z,17.77
2018-11-23T00:56:49.795Z,16.48
2018-11-23T00:59:18.430Z,16.07
2018-11-23T01:01:52.292Z,16.52
2018-11-23T01:04:20.753Z,15.60
2018-11-23T01:06:49.160Z,15.65
2018-11-23T01:09:18.742Z,16.37
2018-11-23T01:11:47.348Z,16.35
2018-11-23T01:14:15.905Z,16.75
2018-11-23T01:16:44.311Z,16.30
2018-11-23T01:19:12.607Z,15.72
2018-11-23T01:21:40.939Z,15.38
2018-11-23T01:24:09.317Z,16.62
2018-11-23T01:26:37.675Z,15.78
2018-11-23T01:29:05.988Z,16.62
2018-11-23T01:31:34.324Z,16.60
2018-11-23T01:34:02.674Z,16.15
2018-11-23T01:36:30.989Z,16.77
2018-11-23T01:38:59.280Z,16.73
2018-11-23T01:41:27.675Z,16.62
2018-11-23T01:43:56.153Z,16.07
2018-11-23T01:46:24.638Z,16.05
2018-11-23T01:48:53.170Z,15.28
2018-11-23T01:51:22.481Z,16.62
2018-11-23T01:53:51.513Z,15.95
2018-11-23T01:56:20.109Z,15.50
2018-11-23T01:58:50.156Z,15.80
2018-11-23T02:01:19.626Z,16.20
2018-11-23T02:03:49.119Z,16.70
2018-11-23T02:06:18.289Z,16.62
2018-11-23T02:08:48.690Z,17.27
2018-11-23T02:11:18.085Z,15.23
2018-11-23T02:13:49.682Z,16.17
2018-11-23T02:16:18.738Z,16.07
2018-11-23T02:18:47.289Z,16.37
2018-11-23T02:21:15.652Z,16.50
2018-11-23T02:23:44.059Z,16.62
2018-11-23T02:26:12.366Z,15.35
2018-11-23T02:28:40.743Z,16.30
2018-11-23T02:31:09.952Z,16.52
2018-11-23T02:33:40.236Z,16.73
2018-11-23T02:36:09.525Z,15.70
2018-11-23T02:38:38.433Z,17.02
2018-11-23T02:41:06.692Z,16.12
2018-11-23T02:43:35.154Z,16.07
2018-11-23T02:46:03.957Z,15.23
2018-11-23T02:48:32.572Z,16.07
2018-11-23T02:51:01.281Z,15.90
2018-11-23T02:53:29.667Z,18.55
2018-11-23T02:55:58.015Z,16.73
2018-11-23T02:58:26.366Z,17.23
2018-11-23T03:00:54.792Z,17.40
2018-11-23T03:03:23.116Z,16.67
2018-11-23T03:05:51.427Z,16.73
2018-11-23T03:08:19.820Z,17.55
2018-11-23T03:10:48.367Z,16.75
2018-11-23T03:13:16.812Z,16.52
2018-11-23T03:15:45.297Z,16.95
2018-11-23T03:18:13.701Z,18.07
2018-11-23T03:20:42.025Z,17.27
2018-11-23T03:23:10.597Z,17.52
2018-11-23T03:25:39.145Z,17.37
2018-11-23T03:28:08.010Z,16.65
2018-11-23T03:30:36.447Z,16.95
2018-11-23T03:33:04.929Z,18.02
2018-11-23T03:35:33.262Z,17.47
2018-11-23T03:38:01.652Z,16.65
2018-11-23T03:40:30.027Z,15.63
2018-11-23T03:42:58.364Z,18.00
2018-11-23T03:45:27.325Z,17.00
2018-11-23T03:47:55.638Z,17.67
2018-11-23T03:50:24.002Z,16.05
2018-11-23T03:52:52.349Z,16.77
2018-11-23T03:55:20.860Z,17.62
2018-11-23T03:57:49.232Z,16.67
2018-11-23T04:00:20.341Z,16.23
2018-11-23T04:02:49.161Z,17.15
2018-11-23T04:05:18.104Z,17.87
2018-11-23T04:07:46.867Z,17.48
2018-11-23T04:10:16.361Z,18.00
2018-11-23T04:12:45.219Z,17.17
2018-11-23T04:15:14.237Z,18.47
2018-11-23T04:17:42.955Z,16.67
2018-11-23T04:20:13.664Z,17.07
2018-11-23T04:22:42.505Z,17.60
2018-11-23T04:25:11.393Z,16.23
2018-11-23T04:27:40.013Z,18.07
2018-11-23T04:30:12.273Z,17.85
2018-11-23T04:32:40.559Z,17.03
2018-11-23T04:35:10.929Z,17.80
2018-11-23T04:37:39.221Z,16.67
2018-11-23T04:40:08.756Z,17.23
2018-11-23T04:42:37.117Z,16.40
2018-11-23T04:45:05.725Z,16.12
2018-11-23T04:47:34.065Z,16.67
2018-11-23T04:50:02.405Z,16.87
2018-11-23T04:52:30.742Z,16.37
2018-11-23T04:54:59.376Z,18.05
2018-11-23T04:57:27.883Z,16.77
2018-11-23T04:59:56.429Z,15.68
2018-11-23T05:02:25.066Z,17.87
2018-11-23T05:04:53.751Z,16.93
2018-11-23T05:07:23.209Z,17.00
2018-11-23T05:09:51.659Z,16.75
2018-11-23T05:12:20.167Z,17.05
2018-11-23T05:14:48.469Z,18.20
2018-11-23T05:17:17.968Z,17.43
2018-11-23T05:19:46.438Z,17.40
2018-11-23T05:22:14.753Z,18.77
2018-11-23T05:24:43.214Z,17.45
2018-11-23T05:27:11.573Z,17.33
2018-11-23T05:29:40.187Z,18.02
2018-11-23T05:32:08.630Z,17.90
2018-11-23T05:34:36.983Z,16.90
2018-11-23T05:37:05.525Z,16.97
2018-11-23T05:39:34.224Z,18.47
2018-11-23T05:42:02.858Z,17.82
2018-11-23T05:44:31.792Z,18.53
2018-11-23T05:47:00.434Z,18.60
2018-11-23T05:49:29.325Z,17.70
2018-11-23T05:51:57.959Z,22.82
2018-11-23T05:54:26.459Z,20.50
2018-11-23T05:56:54.826Z,19.80
2018-11-23T05:59:23.175Z,18.03
2018-11-23T06:01:51.570Z,18.63
2018-11-23T06:04:19.884Z,18.12
2018-11-23T06:06:48.567Z,18.20
2018-11-23T06:09:16.854Z,19.10
2018-11-23T06:11:45.177Z,18.93
2018-11-23T06:14:13.501Z,19.27
2018-11-23T06:16:41.828Z,19.82
2018-11-23T06:19:10.444Z,19.93
2018-11-23T06:21:39.062Z,19.10
2018-11-23T06:24:07.572Z,19.50
2018-11-23T06:26:37.036Z,18.98
2018-11-23T06:29:05.694Z,20.33
2018-11-23T06:31:34.912Z,20.50
2018-11-23T06:34:04.299Z,21.23
2018-11-23T06:36:33.070Z,20.20
2018-11-23T06:39:02.963Z,20.43
2018-11-23T06:41:32.805Z,20.07
2018-11-23T06:44:02.767Z,19.63
2018-11-23T06:46:31.664Z,19.90
2018-11-23T06:49:00.647Z,20.40
2018-11-23T06:51:29.089Z,20.73
2018-11-23T06:53:57.368Z,19.82
2018-11-23T06:56:31.642Z,20.15
2018-11-23T06:59:10.713Z,20.27
2018-11-23T07:01:42.830Z,19.63
2018-11-23T07:04:12.751Z,20.73
2018-11-23T07:06:42.641Z,19.37
2018-11-23T07:09:13.054Z,20.03
2018-11-23T07:11:43.603Z,19.37
2018-11-23T07:14:14.352Z,20.63
2018-11-23T07:16:44.756Z,20.13
2018-11-23T07:19:15.613Z,19.12
2018-11-23T07:21:45.281Z,20.55
2018-11-23T07:24:16.248Z,20.17
2018-11-23T07:26:45.894Z,19.17
2018-11-23T07:29:16.391Z,20.08
2018-11-23T07:31:47.000Z,20.40
2018-11-23T07:34:19.043Z,20.47
2018-11-23T07:36:48.004Z,19.03
2018-11-23T07:42:19.660Z,18.73
2018-11-23T07:44:49.076Z,18.93
2018-11-23T07:47:19.954Z,19.03
2018-11-23T07:49:49.591Z,19.37
2018-11-23T07:52:21.246Z,19.47
2018-11-23T07:54:50.743Z,21.10
2018-11-23T07:57:22.685Z,21.33
2018-11-23T07:59:51.524Z,20.57
2018-11-23T08:02:22.193Z,20.23
2018-11-23T08:04:51.598Z,20.73
2018-11-23T08:07:23.585Z,19.30
2018-11-23T08:09:53.154Z,21.37
2018-11-23T08:12:24.059Z,20.75
2018-11-23T08:17:54.475Z,22.13
2018-11-23T08:20:25.202Z,21.25
2018-11-23T08:22:54.922Z,21.30
2018-11-23T08:25:27.013Z,21.20
2018-11-23T08:27:56.941Z,20.08
2018-11-23T08:30:26.852Z,20.85
2018-11-23T08:32:57.038Z,21.52
2018-11-23T08:35:27.435Z,21.27
2018-11-23T08:37:57.090Z,21.40
2018-11-23T08:40:29.279Z,20.48
2018-11-23T08:42:58.579Z,21.75
2018-11-23T08:45:28.923Z,21.55
2018-11-23T08:47:58.818Z,21.15
2018-11-23T08:50:30.152Z,19.57
2018-11-23T08:52:59.958Z,20.72
2018-11-23T08:55:30.338Z,20.90
2018-11-23T08:58:01.620Z,22.05
2018-11-23T09:00:31.020Z,20.75
2018-11-23T09:03:02.450Z,20.92
2018-11-23T09:05:31.564Z,21.80
2018-11-23T09:08:03.190Z,21.12
2018-11-23T09:10:32.821Z,20.43
2018-11-23T09:13:04.072Z,20.30
2018-11-23T09:15:33.370Z,21.73
2018-11-23T09:18:03.928Z,19.70
2018-11-23T09:20:35.620Z,21.23
2018-11-23T09:23:04.413Z,21.40
2018-11-23T09:25:38.066Z,21.15
2018-11-23T09:28:06.741Z,20.35
2018-11-23T09:30:36.164Z,19.60
2018-11-23T09:33:06.868Z,21.40
2018-11-23T09:35:36.726Z,21.27
2018-11-23T09:38:13.932Z,20.52
2018-11-23T09:41:04.817Z,21.65
2018-11-23T09:43:39.568Z,21.55
2018-11-23T09:46:07.967Z,20.35
2018-11-23T09:48:40.602Z,20.68
2018-11-23T09:51:09.244Z,20.52
2018-11-23T09:53:39.107Z,20.37
2018-11-23T09:56:08.531Z,20.80
2018-11-23T09:58:43.365Z,19.62
2018-11-23T10:03:36.708Z,21.57
2018-11-23T10:06:06.721Z,21.85
2018-11-23T10:08:37.423Z,20.23
2018-11-23T10:11:12.743Z,20.95
2018-11-23T10:13:42.281Z,20.12
2018-11-23T10:16:11.306Z,20.48
2018-11-23T10:18:39.975Z,20.75
2018-11-23T10:21:14.489Z,19.23
2018-11-23T10:23:44.548Z,20.10
2018-11-23T10:26:15.303Z,19.62
2018-11-23T10:28:45.509Z,20.17
2018-11-23T10:31:16.593Z,20.45
2018-11-23T10:33:45.395Z,21.52
2018-11-23T10:36:18.193Z,21.05
2018-11-23T10:38:46.852Z,20.97
2018-11-23T10:41:26.700Z,20.75
2018-11-23T10:43:56.046Z,18.70
2018-11-23T10:46:24.893Z,19.80
2018-11-23T10:48:56.205Z,19.55
2018-11-23T10:51:24.488Z,21.30
2018-11-23T10:53:53.018Z,20.85
2018-11-23T10:56:21.699Z,20.95
2018-11-23T10:58:50.646Z,20.45
2018-11-23T11:01:25.845Z,20.57
2018-11-23T11:03:59.908Z,21.42
2018-11-23T11:06:33.803Z,19.60
2018-11-23T11:09:02.425Z,20.05
2018-11-23T11:11:33.446Z,19.82
2018-11-23T11:14:03.325Z,21.75
2018-11-23T11:16:32.841Z,21.55
2018-11-23T11:19:02.084Z,21.07
2018-11-23T11:21:31.032Z,20.15
2018-11-23T11:23:59.963Z,21.62
2018-11-23T11:26:28.859Z,20.05
2018-11-23T11:28:57.609Z,21.20
2018-11-23T11:31:26.394Z,20.62
2018-11-23T11:33:55.599Z,19.95
2018-11-23T11:36:24.095Z,21.57
2018-11-23T11:38:52.539Z,20.27
2018-11-23T11:41:21.082Z,20.60
2018-11-23T11:43:49.456Z,20.10
2018-11-23T11:46:17.791Z,20.30
2018-11-23T11:48:46.448Z,20.15
2018-11-23T11:51:17.653Z,20.05
2018-11-23T11:53:43.648Z,20.72
2018-11-23T11:56:12.278Z,20.12
2018-11-23T11:58:40.702Z,20.15
2018-11-23T12:01:09.288Z,19.60
2018-11-23T12:03:37.804Z,19.57
2018-11-23T12:06:06.424Z,18.87
2018-11-23T12:08:35.091Z,55.75
2018-11-23T12:11:03.812Z,25.65
2018-11-23T12:13:32.678Z,20.23
2018-11-23T12:16:01.654Z,20.43
2018-11-23T12:18:33.170Z,20.20
2018-11-23T12:21:02.024Z,19.73
2018-11-23T12:23:31.314Z,21.17
2018-11-23T12:26:02.753Z,19.23
2018-11-23T12:28:35.014Z,20.72
2018-11-23T12:31:04.985Z,22.93
2018-11-23T12:33:34.623Z,22.90
2018-11-23T12:36:03.032Z,19.05
2018-11-23T12:38:34.383Z,18.00
2018-11-23T12:41:06.131Z,19.15
2018-11-23T12:43:38.050Z,19.05
2018-11-23T12:46:07.095Z,17.98
2018-11-23T12:48:35.694Z,19.60
2018-11-23T12:51:04.052Z,16.95
2018-11-23T12:53:32.705Z,17.87
2018-11-23T12:56:01.096Z,17.73
2018-11-23T12:58:29.382Z,17.67
2018-11-23T13:00:58.207Z,18.25
2018-11-23T13:03:27.059Z,17.67
2018-11-23T13:05:55.700Z,16.55
2018-11-23T13:08:25.390Z,16.97
2018-11-23T13:10:55.793Z,18.48
2018-11-23T13:13:24.922Z,17.30
2018-11-23T13:16:04.386Z,18.67
2018-11-23T13:18:41.865Z,18.05
2018-11-23T13:21:13.529Z,17.75
2018-11-23T13:23:43.460Z,17.15
2018-11-23T13:26:13.833Z,17.73
2018-11-23T13:28:44.487Z,17.92
2018-11-23T13:31:14.727Z,18.75
2018-11-23T13:33:44.370Z,18.95
2018-11-23T13:36:14.817Z,18.10
2018-11-23T13:38:45.678Z,17.55
2018-11-23T13:41:45.284Z,17.40
2018-11-23T13:44:17.619Z,18.10
2018-11-23T13:46:47.220Z,18.07
2018-11-23T13:49:16.768Z,16.90
2018-11-23T13:51:47.433Z,18.07
2018-11-23T13:54:17.727Z,17.98
2018-11-23T13:56:49.615Z,18.67
2018-11-23T13:59:18.706Z,18.50
2018-11-23T14:01:48.992Z,19.00
2018-11-23T14:04:21.769Z,18.45
2018-11-23T14:06:50.469Z,17.98
2018-11-23T14:09:19.864Z,17.60
2018-11-23T14:11:50.498Z,18.20
2018-11-23T14:14:22.839Z,17.45
2018-11-23T14:16:52.886Z,19.27
2018-11-23T14:19:22.606Z,18.07
2018-11-23T14:21:52.733Z,19.80
2018-11-23T14:24:23.234Z,19.73
2018-11-23T14:26:52.914Z,19.00
2018-11-23T14:29:21.361Z,22.15
2018-11-23T14:31:53.318Z,17.80
2018-11-23T14:34:23.368Z,19.35
2018-11-23T14:36:53.591Z,40.03
2018-11-23T14:39:23.010Z,19.80
2018-11-23T14:41:53.417Z,21.57
2018-11-23T14:44:24.436Z,20.65
2018-11-23T14:46:56.616Z,20.27
2018-11-23T14:49:25.512Z,20.72
2018-11-23T14:51:58.097Z,20.05
2018-11-23T14:54:27.621Z,22.02
2018-11-23T14:56:56.070Z,22.02
2018-11-23T14:59:24.564Z,22.27
2018-11-23T15:01:53.009Z,21.57
2018-11-23T15:04:27.000Z,21.90
2018-11-23T15:06:59.375Z,21.93
2018-11-23T15:09:30.182Z,22.00
2018-11-23T15:12:01.865Z,21.85
2018-11-23T15:14:30.579Z,21.90
2018-11-23T15:17:01.014Z,21.10
2018-11-23T15:19:32.395Z,22.05
2018-11-23T15:22:01.433Z,22.27
2018-11-23T15:24:29.803Z,23.32
2018-11-23T15:27:02.463Z,22.37
2018-11-23T15:29:34.658Z,25.75
2018-11-23T15:32:03.648Z,22.62
2018-11-23T15:34:33.057Z,21.65
2018-11-23T15:37:02.349Z,23.12
2018-11-23T15:39:33.400Z,22.22
2018-11-23T15:42:05.588Z,22.40
2018-11-23T15:44:34.416Z,22.75
2018-11-23T15:47:04.976Z,22.20
2018-11-23T15:49:37.211Z,25.27
2018-11-23T15:52:10.125Z,21.82
2018-11-23T15:54:38.729Z,23.22
2018-11-23T15:57:07.472Z,22.17
2018-11-23T15:59:39.281Z,22.98
2018-11-23T16:02:07.844Z,23.62
2018-11-23T16:04:39.407Z,22.80
2018-11-23T16:07:06.420Z,23.62
2018-11-23T16:09:37.798Z,22.70
2018-11-23T16:12:09.625Z,23.70
2018-11-23T16:14:42.053Z,22.62
2018-11-23T16:17:10.624Z,30.40
2018-11-23T16:19:41.112Z,24.27
2018-11-23T16:22:10.286Z,24.18
2018-11-23T16:24:42.629Z,24.05
2018-11-23T16:27:12.616Z,23.35
2018-11-23T16:29:43.463Z,21.12
2018-11-23T16:32:12.380Z,22.62
2018-11-23T16:34:42.573Z,22.10
2018-11-23T16:37:13.594Z,22.65
2018-11-23T16:39:44.314Z,21.93
2018-11-23T16:42:14.642Z,22.77
2018-11-23T16:44:46.502Z,21.02
2018-11-23T16:47:15.560Z,22.10
2018-11-23T16:49:45.409Z,22.27
2018-11-23T16:52:14.206Z,23.15
2018-11-23T16:57:38.950Z,22.32
2018-11-23T17:00:21.306Z,21.10
2018-11-23T17:02:50.664Z,21.52
2018-11-23T17:05:21.527Z,21.45
2018-11-23T17:07:51.358Z,21.05
2018-11-23T17:10:21.097Z,21.25
2018-11-23T17:12:50.830Z,22.62
2018-11-23T17:15:21.585Z,22.05
2018-11-23T17:17:50.657Z,22.10
2018-11-23T17:20:21.127Z,21.45
2018-11-23T17:22:51.053Z,21.52
2018-11-23T17:25:22.097Z,22.20
2018-11-23T17:27:53.354Z,21.77
2018-11-23T17:30:24.879Z,21.10
2018-11-23T17:32:54.292Z,24.02
2018-11-23T17:35:23.741Z,22.87
2018-11-23T17:37:52.686Z,21.97
2018-11-23T17:40:23.217Z,21.48
2018-11-23T17:42:52.290Z,20.35
2018-11-23T17:45:22.872Z,20.43
2018-11-23T17:47:52.505Z,21.75
2018-11-23T17:50:24.106Z,21.25
2018-11-23T17:52:53.939Z,21.45
2018-11-23T17:55:22.790Z,22.48
2018-11-23T17:57:52.316Z,22.58
2018-11-23T18:00:23.885Z,20.50
2018-11-23T18:02:53.213Z,21.45
2018-11-23T18:05:23.331Z,22.13
2018-11-23T18:07:53.321Z,21.93
2018-11-23T18:10:25.843Z,21.17
2018-11-23T18:12:55.745Z,21.57
2018-11-23T18:15:26.360Z,20.68
2018-11-23T18:17:56.290Z,20.65
2018-11-23T18:20:26.291Z,21.30
2018-11-23T18:22:58.125Z,19.95
2018-11-23T18:25:29.829Z,19.92
2018-11-23T18:28:00.456Z,18.27
2018-11-23T18:30:33.493Z,20.90
2018-11-23T18:33:04.943Z,20.65
2018-11-23T18:35:34.942Z,20.68
2018-11-23T18:38:03.947Z,20.85
2018-11-23T18:40:37.462Z,19.17
2018-11-23T18:43:02.798Z,19.98
2018-11-23T18:45:31.596Z,21.15
2018-11-23T18:48:00.389Z,20.32
2018-11-23T18:50:29.117Z,19.45
2018-11-23T18:52:58.866Z,19.52
2018-11-23T18:55:28.124Z,19.95
2018-11-23T18:57:57.535Z,20.72
2018-11-23T19:00:27.529Z,22.37
2018-11-23T19:02:58.997Z,20.88
2018-11-23T19:05:29.736Z,20.20
2018-11-23T19:08:00.440Z,20.85
2018-11-23T19:10:30.845Z,19.95
2018-11-23T19:13:01.721Z,20.15
2018-11-23T19:15:31.910Z,20.08
2018-11-23T19:18:02.666Z,22.07
2018-11-23T19:20:33.732Z,20.52
2018-11-23T19:23:02.908Z,19.50
2018-11-23T19:25:33.282Z,19.80
2018-11-23T19:28:05.553Z,21.57
2018-11-23T19:30:35.330Z,20.23
2018-11-23T19:33:05.689Z,22.37
2018-11-23T19:35:35.224Z,21.40
2018-11-23T19:38:08.795Z,22.60
2018-11-23T19:40:39.309Z,22.00
2018-11-23T19:43:11.370Z,24.27
2018-11-23T19:45:42.505Z,22.35
2018-11-23T19:48:14.376Z,20.55
2018-11-23T19:50:43.980Z,24.00
2018-11-23T19:53:13.317Z,25.57
2018-11-23T19:55:43.369Z,21.80
2018-11-23T19:58:12.438Z,21.80
2018-11-23T20:00:41.213Z,22.42
2018-11-23T20:03:10.126Z,22.48
2018-11-23T20:05:39.947Z,23.32
2018-11-23T20:08:17.474Z,24.80
2018-11-23T20:10:48.835Z,21.77
2018-11-23T20:13:18.556Z,24.10
2018-11-23T20:15:48.932Z,24.20
2018-11-23T20:18:19.395Z,22.95
2018-11-23T20:20:48.701Z,22.17
2018-11-23T20:23:18.648Z,22.07
2018-11-23T20:25:50.639Z,23.05
2018-11-23T20:28:19.970Z,24.10
2018-11-23T20:30:50.437Z,24.92
2018-11-23T20:33:21.297Z,23.80
2018-11-23T20:35:52.060Z,22.17
2018-11-23T20:38:23.553Z,23.32
2018-11-23T20:40:53.041Z,23.05
2018-11-23T20:43:25.320Z,21.25
2018-11-23T20:45:54.627Z,23.70
2018-11-23T20:48:25.023Z,22.13
2018-11-23T20:50:56.188Z,21.70
2018-11-23T20:53:25.385Z,22.50
2018-11-23T20:55:54.921Z,22.70
2018-11-23T20:58:24.585Z,22.35
2018-11-23T21:00:53.492Z,22.00
2018-11-23T21:03:22.299Z,25.23
2018-11-23T21:05:50.953Z,21.37
2018-11-23T21:08:22.092Z,21.42
2018-11-23T21:10:53.248Z,22.30
2018-11-23T21:13:23.781Z,23.25
2018-11-23T21:15:53.767Z,22.42
2018-11-23T21:18:23.926Z,22.42
2018-11-23T21:20:55.757Z,22.25
2018-11-23T21:23:25.473Z,21.97
2018-11-23T21:25:58.673Z,25.00
2018-11-23T21:28:29.425Z,23.57
2018-11-23T21:30:58.276Z,22.98
2018-11-23T21:33:26.979Z,23.32
2018-11-23T21:35:57.936Z,24.02
2018-11-23T21:38:27.739Z,23.65
2018-11-23T21:40:56.702Z,24.82
2018-11-23T21:43:25.488Z,23.92
2018-11-23T21:45:54.310Z,25.70
2018-11-23T21:48:23.533Z,25.45
2018-11-23T21:50:52.660Z,25.12
2018-11-23T21:53:23.139Z,24.50
2018-11-23T21:55:54.349Z,25.02
2018-11-23T21:58:28.902Z,23.45
2018-11-23T22:00:59.072Z,23.52
2018-11-23T22:03:35.672Z,23.07
2018-11-23T22:06:05.757Z,22.95
2018-11-23T22:08:34.899Z,23.80
2018-11-23T22:11:04.049Z,23.30
2018-11-23T22:13:33.927Z,23.85
2018-11-23T22:16:03.210Z,25.12
2018-11-23T22:18:35.128Z,24.35
2018-11-23T22:21:05.795Z,23.20
2018-11-23T22:23:36.387Z,24.55
2018-11-23T22:26:06.120Z,24.52
2018-11-23T22:28:37.346Z,25.17
2018-11-23T22:31:06.709Z,25.23
2018-11-23T22:33:35.403Z,23.07
2018-11-23T22:36:04.268Z,24.20
2018-11-23T22:38:33.015Z,24.85
2018-11-23T22:41:01.701Z,24.80
2018-11-23T22:43:30.512Z,25.17
2018-11-23T22:45:59.358Z,26.02
2018-11-23T22:48:28.013Z,23.12
2018-11-23T22:50:56.628Z,24.70
2018-11-23T22:53:25.326Z,23.32
2018-11-23T22:55:54.180Z,22.82
2018-11-23T22:58:23.092Z,22.90
2018-11-23T23:00:56.048Z,24.47
2018-11-23T23:03:24.914Z,21.87
2018-11-23T23:05:53.930Z,24.90
2018-11-23T23:08:22.725Z,23.25
2018-11-23T23:10:51.569Z,23.07
2018-11-23T23:13:20.404Z,23.40
2018-11-23T23:15:49.263Z,22.67
2018-11-23T23:18:18.227Z,22.70
2018-11-23T23:20:47.473Z,24.07
2018-11-23T23:23:16.275Z,24.10
2018-11-23T23:25:45.020Z,23.65
2018-11-23T23:28:13.812Z,23.35
2018-11-23T23:30:42.565Z,22.65
2018-11-23T23:33:11.231Z,24.50
2018-11-23T23:35:39.968Z,24.50
2018-11-23T23:38:08.684Z,22.35
2018-11-23T23:40:37.370Z,23.12
2018-11-23T23:43:05.985Z,23.10
2018-11-23T23:45:34.716Z,24.18
2018-11-23T23:48:03.560Z,24.45
2018-11-23T23:50:32.606Z,22.33
2018-11-23T23:53:01.430Z,23.00
2018-11-23T23:55:30.534Z,23.75
2018-11-23T23:57:59.456Z,23.67
